createdAt,value
2017-09-20T00:01:51.412Z,84.20
2017-09-20T00:04:25.460Z,84.30
2017-09-20T00:06:56.307Z,84.30
2017-09-20T00:09:24.733Z,84.20
2017-09-20T00:11:52.218Z,84.00
2017-09-20T00:14:25.958Z,83.90
2017-09-20T00:16:54.580Z,84.00
2017-09-20T00:19:22.070Z,84.10
2017-09-20T00:21:55.897Z,84.00
2017-09-20T00:24:23.422Z,84.20
2017-09-20T00:26:56.879Z,84.30
2017-09-20T00:29:25.143Z,84.50
2017-09-20T00:31:56.371Z,84.40
2017-09-20T00:34:24.659Z,84.60
2017-09-20T00:36:55.984Z,84.50
2017-09-20T00:39:24.692Z,84.60
2017-09-20T00:41:52.191Z,84.60
2017-09-20T00:44:20.059Z,85.00
2017-09-20T00:46:48.318Z,84.90
2017-09-20T00:49:16.582Z,85.10
2017-09-20T00:51:44.835Z,85.00
2017-09-20T00:54:15.878Z,85.30
2017-09-20T00:56:43.447Z,85.20
2017-09-20T00:59:14.502Z,85.20
2017-09-20T01:01:45.402Z,85.50
2017-09-20T01:04:12.899Z,85.40
2017-09-20T01:06:40.405Z,85.60
2017-09-20T01:09:14.234Z,86.00
2017-09-20T01:11:42.063Z,86.10
2017-09-20T01:14:15.887Z,86.20
2017-09-20T01:16:43.662Z,86.30
2017-09-20T01:19:16.838Z,86.40
2017-09-20T01:21:56.548Z,86.30
2017-09-20T01:24:24.811Z,86.40
2017-09-20T01:26:52.302Z,86.30
2017-09-20T01:29:19.815Z,86.40
2017-09-20T01:31:54.431Z,86.50
2017-09-20T01:34:21.923Z,86.50
2017-09-20T01:36:50.183Z,86.40
2017-09-20T01:39:24.999Z,86.30
2017-09-20T01:41:52.493Z,86.40
2017-09-20T01:44:21.091Z,86.40
2017-09-20T01:46:48.584Z,86.20
2017-09-20T01:49:16.866Z,86.50
2017-09-20T01:51:44.403Z,86.40
2017-09-20T01:54:11.903Z,86.30
2017-09-20T01:56:45.387Z,86.40
2017-09-20T01:59:12.907Z,86.40
2017-09-20T02:01:40.407Z,86.40
2017-09-20T02:04:14.384Z,86.70
2017-09-20T02:06:41.875Z,86.60
2017-09-20T02:09:15.687Z,86.40
2017-09-20T02:11:43.192Z,86.20
2017-09-20T02:14:17.303Z,86.30
2017-09-20T02:16:45.594Z,86.70
2017-09-20T02:19:14.818Z,87.80
2017-09-20T02:21:45.397Z,87.10
2017-09-20T02:24:15.175Z,88.10
2017-09-20T02:26:45.923Z,88.00
2017-09-20T02:29:15.056Z,88.10
2017-09-20T02:31:46.003Z,88.10
2017-09-20T02:34:14.525Z,88.10
2017-09-20T02:36:45.361Z,88.10
2017-09-20T02:39:12.872Z,88.00
2017-09-20T02:41:40.407Z,87.90
2017-09-20T02:44:08.685Z,88.10
2017-09-20T02:46:44.380Z,87.80
2017-09-20T02:49:12.209Z,87.70
2017-09-20T02:51:46.148Z,88.30
2017-09-20T02:54:15.348Z,88.30
2017-09-20T02:56:42.831Z,88.10
2017-09-20T02:59:10.324Z,88.10
2017-09-20T03:01:38.628Z,88.60
2017-09-20T03:04:14.310Z,88.40
2017-09-20T03:06:45.196Z,88.70
2017-09-20T03:09:14.899Z,88.90
2017-09-20T03:11:45.143Z,89.30
2017-09-20T03:14:14.418Z,89.60
2017-09-20T03:16:46.418Z,89.50
2017-09-20T03:19:14.730Z,89.50
2017-09-20T03:21:42.221Z,89.50
2017-09-20T03:24:16.844Z,89.90
2017-09-20T03:26:55.371Z,89.40
2017-09-20T03:29:24.673Z,89.10
2017-09-20T03:31:56.256Z,88.80
2017-09-20T03:34:24.879Z,88.80
2017-09-20T03:36:52.374Z,88.90
2017-09-20T03:39:20.639Z,89.10
2017-09-20T03:41:48.902Z,89.20
2017-09-20T03:44:16.694Z,89.10
2017-09-20T03:46:54.947Z,89.40
2017-09-20T03:49:22.763Z,89.20
2017-09-20T03:51:51.077Z,89.50
2017-09-20T03:54:18.562Z,89.40
2017-09-20T03:56:54.287Z,89.50
2017-09-20T03:59:21.771Z,89.30
2017-09-20T04:01:49.594Z,89.30
2017-09-20T04:04:17.096Z,89.50
2017-09-20T04:06:55.191Z,90.20
2017-09-20T04:09:25.950Z,89.50
2017-09-20T04:11:53.443Z,89.60
2017-09-20T04:14:21.760Z,88.50
2017-09-20T04:16:49.257Z,88.50
2017-09-20T04:19:24.169Z,88.40
2017-09-20T04:21:54.975Z,88.30
2017-09-20T04:24:22.764Z,88.00
2017-09-20T04:26:56.817Z,88.00
2017-09-20T04:29:35.937Z,87.50
2017-09-20T04:32:04.190Z,87.60
2017-09-20T04:34:31.686Z,87.50
2017-09-20T04:37:05.919Z,87.20
2017-09-20T04:39:33.403Z,87.20
2017-09-20T04:42:05.011Z,87.20
2017-09-20T04:44:33.288Z,87.40
2017-09-20T04:47:05.763Z,87.80
2017-09-20T04:49:35.044Z,88.10
2017-09-20T04:52:02.543Z,87.90
2017-09-20T04:54:30.046Z,87.70
2017-09-20T04:57:04.556Z,87.80
2017-09-20T04:59:32.370Z,87.60
2017-09-20T05:02:05.923Z,87.20
2017-09-20T05:04:33.773Z,86.70
2017-09-20T05:07:01.263Z,86.60
2017-09-20T05:09:28.805Z,86.40
2017-09-20T05:12:04.158Z,86.30
2017-09-20T05:14:31.677Z,86.50
2017-09-20T05:17:05.857Z,86.70
2017-09-20T05:19:34.547Z,86.80
2017-09-20T05:22:02.806Z,88.20
2017-09-20T05:24:36.058Z,88.10
2017-09-20T05:27:05.008Z,88.80
2017-09-20T05:29:32.782Z,88.00
2017-09-20T05:32:01.044Z,87.70
2017-09-20T05:34:35.665Z,87.60
2017-09-20T05:37:03.160Z,87.50
2017-09-20T05:39:36.950Z,87.50
2017-09-20T05:42:05.206Z,87.20
2017-09-20T05:44:32.704Z,87.10
2017-09-20T05:47:05.887Z,86.90
2017-09-20T05:49:33.383Z,87.20
2017-09-20T05:52:01.190Z,87.10
2017-09-20T05:54:35.723Z,86.80
2017-09-20T05:57:04.305Z,86.70
2017-09-20T05:59:32.631Z,87.00
2017-09-20T06:02:06.843Z,86.80
2017-09-20T06:04:34.351Z,86.70
2017-09-20T06:07:06.011Z,86.00
2017-09-20T06:09:33.574Z,85.90
2017-09-20T06:12:01.842Z,85.60
2017-09-20T06:14:36.498Z,85.60
2017-09-20T06:17:03.987Z,85.60
2017-09-20T06:19:31.792Z,84.90
2017-09-20T06:22:06.395Z,84.30
2017-09-20T06:24:34.172Z,84.10
2017-09-20T06:27:04.790Z,84.40
2017-09-20T06:29:35.764Z,84.90
2017-09-20T06:32:04.006Z,84.80
2017-09-20T06:34:34.730Z,84.80
2017-09-20T06:37:05.352Z,84.90
2017-09-20T06:39:32.838Z,84.80
2017-09-20T06:42:00.631Z,84.70
2017-09-20T06:44:35.191Z,84.40
2017-09-20T06:47:03.042Z,84.30
2017-09-20T06:49:36.671Z,84.50
2017-09-20T06:52:04.612Z,84.00
2017-09-20T06:54:35.151Z,83.70
2017-09-20T06:57:06.030Z,83.60
2017-09-20T06:59:33.518Z,83.80
2017-09-20T07:02:05.202Z,83.50
2017-09-20T07:04:32.707Z,83.50
2017-09-20T07:07:06.263Z,83.20
2017-09-20T07:09:33.755Z,83.70
2017-09-20T07:12:01.247Z,82.40
2017-09-20T07:14:35.735Z,81.80
2017-09-20T07:17:03.227Z,81.70
2017-09-20T07:19:31.490Z,80.90
2017-09-20T07:22:05.607Z,80.60
2017-09-20T07:24:33.873Z,81.10
2017-09-20T07:27:01.653Z,81.00
2017-09-20T07:29:35.570Z,81.00
2017-09-20T07:32:04.143Z,80.30
2017-09-20T07:34:32.394Z,79.90
2017-09-20T07:37:06.599Z,79.80
2017-09-20T07:39:34.094Z,79.70
2017-09-20T07:42:06.379Z,79.10
2017-09-20T07:44:34.609Z,79.00
2017-09-20T07:47:05.223Z,78.90
2017-09-20T07:49:35.774Z,78.60
2017-09-20T07:52:06.295Z,77.80
2017-09-20T07:54:35.287Z,76.90
2017-09-20T07:57:04.605Z,76.80
2017-09-20T07:59:35.463Z,76.60
2017-09-20T08:02:03.720Z,75.90
2017-09-20T08:04:31.238Z,75.90
2017-09-20T08:06:58.740Z,75.60
2017-09-20T08:09:34.122Z,75.00
2017-09-20T08:12:01.967Z,75.40
2017-09-20T08:14:30.220Z,74.90
2017-09-20T08:16:57.708Z,74.80
2017-09-20T08:19:35.985Z,74.60
2017-09-20T08:22:03.478Z,74.50
2017-09-20T08:24:34.933Z,74.60
2017-09-20T08:27:02.425Z,74.60
2017-09-20T08:29:29.915Z,74.10
2017-09-20T08:32:04.252Z,73.50
2017-09-20T08:34:32.507Z,73.00
2017-09-20T08:37:06.470Z,72.90
2017-09-20T08:39:33.955Z,73.90
2017-09-20T08:42:01.783Z,74.10
2017-09-20T08:44:30.051Z,72.60
2017-09-20T08:46:57.537Z,72.50
2017-09-20T08:49:35.615Z,72.30
2017-09-20T08:52:03.127Z,72.20
2017-09-20T08:54:36.874Z,71.30
2017-09-20T08:57:05.126Z,71.10
2017-09-20T08:59:35.567Z,71.00
2017-09-20T09:02:03.816Z,70.10
2017-09-20T09:04:31.623Z,69.90
2017-09-20T09:07:05.530Z,68.90
2017-09-20T09:09:34.115Z,69.10
2017-09-20T09:12:05.434Z,68.90
2017-09-20T09:14:32.919Z,68.70
2017-09-20T09:17:01.188Z,67.90
2017-09-20T09:19:35.583Z,68.30
2017-09-20T09:22:04.588Z,68.20
2017-09-20T09:24:32.075Z,68.90
2017-09-20T09:26:59.934Z,69.10
2017-09-20T09:29:28.178Z,68.30
2017-09-20T09:31:55.667Z,68.30
2017-09-20T09:34:23.937Z,68.10
2017-09-20T09:36:52.193Z,67.80
2017-09-20T09:39:25.770Z,67.60
2017-09-20T09:41:53.260Z,67.10
2017-09-20T09:44:20.740Z,66.20
2017-09-20T09:46:49.044Z,64.90
2017-09-20T09:49:24.065Z,64.90
2017-09-20T09:51:55.190Z,65.20
2017-09-20T09:54:24.463Z,64.80
2017-09-20T09:56:55.330Z,64.70
2017-09-20T09:59:24.619Z,64.10
2017-09-20T10:01:52.868Z,64.80
2017-09-20T10:04:26.587Z,64.80
2017-09-20T10:06:55.383Z,64.70
2017-09-20T10:09:23.661Z,65.40
2017-09-20T10:11:51.919Z,65.10
2017-09-20T10:14:19.415Z,65.10
2017-09-20T10:16:55.011Z,64.80
2017-09-20T10:19:22.837Z,64.70
2017-09-20T10:21:50.354Z,64.70
2017-09-20T10:24:25.209Z,63.90
2017-09-20T10:26:53.492Z,60.30
2017-09-20T10:29:27.311Z,60.20
2017-09-20T10:31:54.836Z,59.90
2017-09-20T10:34:23.096Z,59.40
2017-09-20T10:36:57.066Z,59.30
2017-09-20T10:39:24.551Z,58.50
2017-09-20T10:41:52.049Z,58.60
2017-09-20T10:44:20.429Z,58.50
2017-09-20T10:46:54.650Z,58.70
2017-09-20T10:49:24.529Z,58.10
2017-09-20T10:51:55.220Z,58.10
2017-09-20T10:54:22.768Z,58.10
2017-09-20T10:56:50.270Z,58.40
2017-09-20T10:59:24.827Z,58.80
2017-09-20T11:01:53.829Z,58.30
2017-09-20T11:04:22.127Z,58.10
2017-09-20T11:06:55.762Z,58.00
2017-09-20T11:09:23.587Z,58.40
2017-09-20T11:11:51.086Z,59.00
2017-09-20T11:14:18.610Z,58.50
2017-09-20T11:16:54.158Z,58.60
2017-09-20T11:19:24.992Z,58.80
2017-09-20T11:21:52.512Z,58.20
2017-09-20T11:24:20.024Z,57.30
2017-09-20T11:26:54.963Z,56.70
2017-09-20T11:29:25.524Z,56.10
2017-09-20T11:31:56.503Z,55.70
2017-09-20T11:34:24.757Z,51.20
2017-09-20T11:36:56.026Z,51.00
2017-09-20T11:39:24.514Z,46.10
2017-09-20T11:41:52.766Z,45.10
2017-09-20T11:44:27.143Z,45.50
2017-09-20T11:47:04.930Z,45.40
2017-09-20T11:49:35.808Z,45.60
2017-09-20T11:52:03.299Z,46.50
2017-09-20T11:54:31.886Z,48.40
2017-09-20T11:56:59.377Z,48.30
2017-09-20T11:59:34.645Z,48.70
2017-09-20T12:02:05.152Z,48.10
2017-09-20T12:04:32.642Z,48.90
2017-09-20T12:07:05.889Z,48.20
2017-09-20T12:09:34.629Z,48.00
2017-09-20T12:12:02.118Z,47.70
2017-09-20T12:14:35.552Z,47.50
2017-09-20T12:17:03.060Z,47.60
2017-09-20T12:19:34.987Z,50.00
2017-09-20T12:22:02.751Z,50.00
2017-09-20T12:24:36.807Z,52.10
2017-09-20T12:27:05.486Z,55.30
2017-09-20T12:29:33.775Z,56.90
2017-09-20T12:32:05.298Z,56.80
2017-09-20T12:34:36.420Z,58.10
2017-09-20T12:37:03.913Z,58.20
2017-09-20T12:39:32.178Z,58.50
2017-09-20T12:42:00.432Z,56.30
2017-09-20T12:44:34.904Z,56.30
2017-09-20T12:47:05.731Z,56.50
2017-09-20T12:49:34.017Z,55.50
2017-09-20T12:52:01.560Z,55.50
2017-09-20T12:54:29.844Z,52.00
2017-09-20T12:56:57.712Z,51.90
2017-09-20T12:59:34.247Z,52.60
2017-09-20T13:02:02.052Z,52.50
2017-09-20T13:04:35.645Z,52.00
2017-09-20T13:07:04.223Z,51.90
2017-09-20T13:09:36.298Z,53.10
2017-09-20T13:12:14.938Z,55.10
2017-09-20T13:14:42.422Z,55.10
2017-09-20T13:17:09.921Z,58.20
2017-09-20T13:19:44.556Z,62.30
2017-09-20T13:22:13.367Z,63.80
2017-09-20T13:24:40.993Z,63.70
2017-09-20T13:27:09.266Z,65.90
2017-09-20T13:29:44.694Z,65.70
2017-09-20T13:32:12.185Z,63.60
2017-09-20T13:34:47.372Z,56.70
2017-09-20T13:37:14.881Z,56.60
2017-09-20T13:39:44.735Z,50.80
2017-09-20T13:42:15.191Z,50.60
2017-09-20T13:44:42.718Z,48.10
2017-09-20T13:47:15.981Z,48.00
2017-09-20T13:49:44.246Z,48.30
2017-09-20T13:52:15.587Z,49.40
2017-09-20T13:54:43.852Z,49.60
2017-09-20T13:57:11.646Z,49.50
2017-09-20T13:59:46.575Z,52.40
2017-09-20T14:02:15.163Z,50.70
2017-09-20T14:04:43.423Z,48.30
2017-09-20T14:07:11.694Z,47.60
2017-09-20T14:09:45.649Z,47.60
2017-09-20T14:12:13.136Z,44.90
2017-09-20T14:14:40.943Z,44.00
2017-09-20T14:17:15.760Z,40.50
2017-09-20T14:19:44.451Z,40.50
2017-09-20T14:22:14.557Z,40.10
2017-09-20T14:24:42.066Z,40.00
2017-09-20T14:27:09.570Z,39.90
2017-09-20T14:29:44.178Z,38.20
2017-09-20T14:32:15.386Z,37.60
2017-09-20T14:34:42.928Z,38.60
2017-09-20T14:37:11.177Z,38.60
2017-09-20T14:39:44.627Z,38.60
2017-09-20T14:42:12.108Z,37.30
2017-09-20T14:44:46.182Z,37.50
2017-09-20T14:47:13.676Z,37.00
2017-09-20T14:49:45.083Z,36.60
2017-09-20T14:52:16.263Z,37.70
2017-09-20T14:54:43.758Z,37.60
2017-09-20T14:57:11.253Z,37.80
2017-09-20T14:59:38.740Z,39.10
2017-09-20T15:02:14.455Z,40.80
2017-09-20T15:04:42.759Z,42.80
2017-09-20T15:07:10.264Z,42.70
2017-09-20T15:09:37.746Z,44.20
2017-09-20T15:12:16.354Z,47.00
2017-09-20T15:14:44.618Z,48.90
2017-09-20T15:17:12.108Z,48.80
2017-09-20T15:19:45.633Z,49.50
2017-09-20T15:22:16.374Z,50.10
2017-09-20T15:24:45.231Z,51.00
2017-09-20T15:27:14.603Z,52.30
2017-09-20T15:29:42.108Z,53.90
2017-09-20T15:32:09.602Z,55.30
2017-09-20T15:34:37.150Z,55.20
2017-09-20T15:37:04.974Z,55.10
2017-09-20T15:39:32.467Z,55.60
2017-09-20T15:42:06.018Z,56.00
2017-09-20T15:44:34.336Z,55.40
2017-09-20T15:47:05.855Z,55.30
2017-09-20T15:49:34.157Z,55.00
2017-09-20T15:52:01.650Z,54.90
2017-09-20T15:54:29.207Z,54.00
2017-09-20T15:57:04.896Z,53.50
2017-09-20T15:59:34.706Z,53.30
2017-09-20T16:02:06.176Z,52.30
2017-09-20T16:04:33.683Z,52.30
2017-09-20T16:07:01.166Z,52.60
2017-09-20T16:09:35.860Z,54.60
2017-09-20T16:12:03.489Z,54.50
2017-09-20T16:14:31.039Z,55.10
2017-09-20T16:17:04.851Z,55.40
2017-09-20T16:19:35.967Z,55.30
2017-09-20T16:22:04.293Z,55.20
2017-09-20T16:24:31.796Z,55.20
2017-09-20T16:27:05.855Z,55.00
2017-09-20T16:29:33.347Z,55.20
2017-09-20T16:32:07.324Z,55.70
2017-09-20T16:34:34.843Z,56.00
2017-09-20T16:37:03.103Z,56.90
2017-09-20T16:39:30.607Z,56.90
2017-09-20T16:41:58.110Z,57.50
2017-09-20T16:44:35.817Z,58.00
2017-09-20T16:47:03.300Z,58.40
2017-09-20T16:49:31.679Z,59.70
2017-09-20T16:52:06.468Z,59.80
2017-09-20T16:54:33.962Z,59.70
2017-09-20T16:57:02.552Z,60.50
2017-09-20T16:59:30.887Z,60.40
2017-09-20T17:02:05.255Z,60.40
2017-09-20T17:04:32.796Z,60.80
2017-09-20T17:07:00.277Z,61.40
2017-09-20T17:09:34.921Z,62.00
2017-09-20T17:12:02.403Z,62.00
2017-09-20T17:14:36.496Z,62.50
2017-09-20T17:17:03.978Z,63.00
2017-09-20T17:19:31.463Z,63.50
2017-09-20T17:22:04.998Z,64.10
2017-09-20T17:24:32.534Z,64.90
2017-09-20T17:27:05.024Z,66.30
2017-09-20T17:29:36.338Z,66.30
2017-09-20T17:32:03.839Z,66.70
2017-09-20T17:34:31.338Z,67.40
2017-09-20T17:36:58.831Z,67.90
2017-09-20T17:39:27.423Z,68.70
2017-09-20T17:42:06.006Z,69.00
2017-09-20T17:44:33.812Z,69.00
2017-09-20T17:47:01.334Z,69.70
2017-09-20T17:49:35.538Z,69.80
2017-09-20T17:52:03.026Z,69.90
2017-09-20T17:54:36.749Z,69.90
2017-09-20T17:57:15.005Z,70.50
2017-09-20T17:59:46.303Z,70.40
2017-09-20T18:02:24.237Z,71.40
2017-09-20T18:04:52.018Z,71.40
2017-09-20T18:07:19.515Z,71.50
2017-09-20T18:09:55.254Z,71.80
2017-09-20T18:12:22.752Z,71.70
2017-09-20T18:14:56.405Z,72.00
2017-09-20T18:17:25.018Z,72.40
2017-09-20T18:19:54.643Z,73.10
2017-09-20T18:22:25.093Z,73.00
2017-09-20T18:24:55.730Z,73.20
2017-09-20T18:27:23.241Z,73.30
2017-09-20T18:29:51.499Z,74.00
2017-09-20T18:32:19.287Z,73.90
2017-09-20T18:34:55.066Z,74.60
2017-09-20T18:37:22.908Z,74.50
2017-09-20T18:39:54.674Z,75.40
2017-09-20T18:42:22.166Z,75.40
2017-09-20T18:44:49.754Z,75.70
2017-09-20T18:47:24.347Z,75.90
2017-09-20T18:49:55.772Z,75.90
2017-09-20T18:52:24.031Z,76.20
2017-09-20T18:54:56.625Z,76.30
2017-09-20T18:57:25.032Z,76.30
2017-09-20T18:59:52.589Z,76.50
2017-09-20T19:02:20.091Z,76.50
2017-09-20T19:04:54.190Z,76.90
2017-09-20T19:07:21.699Z,77.20
2017-09-20T19:09:49.195Z,77.10
2017-09-20T19:12:17.033Z,77.20
2017-09-20T19:14:54.647Z,77.50
2017-09-20T19:17:22.482Z,77.60
2017-09-20T19:19:50.011Z,77.60
2017-09-20T19:22:24.667Z,77.80
2017-09-20T19:24:52.155Z,77.80
2017-09-20T19:27:19.644Z,77.80
2017-09-20T19:29:55.320Z,77.60
2017-09-20T19:32:25.320Z,77.90
2017-09-20T19:34:55.845Z,77.80
2017-09-20T19:37:24.462Z,78.20
2017-09-20T19:39:56.039Z,78.10
2017-09-20T19:42:23.533Z,78.00
2017-09-20T19:44:51.075Z,78.10
2017-09-20T19:47:18.567Z,78.30
2017-09-20T19:49:46.064Z,78.40
2017-09-20T19:52:13.548Z,78.40
2017-09-20T19:54:45.052Z,79.10
2017-09-20T19:57:13.308Z,78.60
2017-09-20T19:59:44.432Z,78.50
2017-09-20T20:02:11.982Z,79.40
2017-09-20T20:04:39.515Z,78.80
2017-09-20T20:07:15.107Z,78.70
2017-09-20T20:09:45.858Z,78.80
2017-09-20T20:12:16.715Z,78.90
2017-09-20T20:14:44.960Z,79.00
2017-09-20T20:17:15.794Z,78.90
2017-09-20T20:19:44.523Z,79.20
2017-09-20T20:22:12.008Z,79.30
2017-09-20T20:24:39.504Z,79.40
2017-09-20T20:27:07.004Z,79.20
2017-09-20T20:29:34.502Z,79.50
2017-09-20T20:32:02.017Z,79.40
2017-09-20T20:34:35.941Z,79.60
2017-09-20T20:37:04.546Z,79.60
2017-09-20T20:39:35.274Z,79.70
2017-09-20T20:42:05.911Z,79.90
2017-09-20T20:44:33.399Z,79.90
2017-09-20T20:47:06.813Z,80.10
2017-09-20T20:49:35.058Z,80.30
2017-09-20T20:52:02.547Z,80.20
2017-09-20T20:54:30.802Z,81.20
2017-09-20T20:57:04.666Z,81.10
2017-09-20T20:59:32.159Z,81.50
2017-09-20T21:02:06.303Z,81.40
2017-09-20T21:04:44.891Z,82.10
2017-09-20T21:07:16.593Z,81.90
2017-09-20T21:09:45.763Z,82.50
2017-09-20T21:12:14.972Z,82.40
2017-09-20T21:14:44.655Z,82.60
2017-09-20T21:17:12.183Z,82.60
2017-09-20T21:19:39.959Z,82.60
2017-09-20T21:22:14.584Z,82.90
2017-09-20T21:24:42.376Z,83.10
2017-09-20T21:27:09.866Z,83.80
2017-09-20T21:29:38.118Z,83.20
2017-09-20T21:32:06.390Z,83.50
2017-09-20T21:34:35.200Z,83.50
2017-09-20T21:37:05.129Z,83.60
2017-09-20T21:39:32.623Z,83.50
2017-09-20T21:42:00.120Z,83.60
2017-09-20T21:44:27.628Z,83.60
2017-09-20T21:47:05.131Z,83.50
2017-09-20T21:49:32.967Z,83.60
2017-09-20T21:52:00.446Z,83.50
2017-09-20T21:54:27.939Z,83.30
2017-09-20T21:56:55.454Z,83.10
2017-09-20T21:59:22.943Z,82.90
2017-09-20T22:01:50.435Z,83.00
2017-09-20T22:04:24.404Z,83.20
2017-09-20T22:06:52.220Z,83.20
2017-09-20T22:09:20.480Z,83.50
2017-09-20T22:11:48.730Z,84.40
2017-09-20T22:14:16.993Z,83.60
2017-09-20T22:16:57.001Z,83.50
2017-09-20T22:19:40.965Z,83.80
2017-09-20T22:22:20.347Z,83.80
2017-09-20T22:24:59.562Z,83.90
2017-09-20T22:27:27.861Z,84.00
2017-09-20T22:30:05.808Z,84.00
2017-09-20T22:32:34.841Z,84.40
2017-09-20T22:35:04.452Z,84.80
2017-09-20T22:37:31.943Z,84.80
2017-09-20T22:40:00.645Z,84.90
2017-09-20T22:42:34.497Z,84.80
2017-09-20T22:45:05.578Z,84.80
2017-09-20T22:47:33.838Z,85.40
2017-09-20T22:50:01.325Z,85.40
2017-09-20T22:52:36.047Z,86.00
2017-09-20T22:55:04.298Z,86.10
2017-09-20T22:57:32.086Z,86.00
2017-09-20T23:00:00.348Z,85.80
2017-09-20T23:02:34.779Z,85.80
2017-09-20T23:05:03.050Z,85.90
2017-09-20T23:07:36.943Z,85.80
2017-09-20T23:10:04.438Z,85.60
2017-09-20T23:12:36.160Z,84.70
2017-09-20T23:15:03.652Z,84.70
2017-09-20T23:17:35.354Z,84.50
2017-09-20T23:20:03.130Z,84.40
2017-09-20T23:22:30.810Z,84.30
2017-09-20T23:24:58.313Z,84.00
2017-09-20T23:27:25.821Z,83.70
2017-09-20T23:29:53.308Z,83.80
2017-09-20T23:32:25.372Z,83.80
2017-09-20T23:34:53.626Z,83.70
2017-09-20T23:37:24.479Z,83.60
2017-09-20T23:39:56.210Z,85.30
2017-09-20T23:42:24.815Z,85.30
2017-09-20T23:44:54.843Z,85.70
2017-09-20T23:47:26.131Z,85.80
2017-09-20T23:49:55.186Z,85.70
2017-09-20T23:52:23.436Z,85.80
2017-09-20T23:54:50.922Z,85.70
2017-09-20T23:57:25.427Z,85.90
2017-09-20T23:59:55.242Z,86.00
